createdAt,value
2022-09-14T00:01:15.496Z,13.57
2022-09-14T00:02:55.264Z,13.56
2022-09-14T00:04:35.009Z,13.56
2022-09-14T00:06:14.774Z,13.55
2022-09-14T00:07:54.532Z,13.54
2022-09-14T00:09:34.310Z,13.52
2022-09-14T00:11:14.066Z,13.49
2022-09-14T00:12:53.829Z,13.5
2022-09-14T00:14:33.602Z,13.45
2022-09-14T00:16:13.361Z,13.37
2022-09-14T00:17:53.126Z,13.38
2022-09-14T00:19:32.879Z,13.34
2022-09-14T00:21:12.647Z,13.32
2022-09-14T00:22:52.420Z,13.26
2022-09-14T00:24:32.189Z,13.24
2022-09-14T00:26:11.944Z,13.2
2022-09-14T00:29:31.488Z,13.15
2022-09-14T00:32:51.020Z,13.11
2022-09-14T00:34:30.769Z,13.08
2022-09-14T00:36:10.586Z,13.07
2022-09-14T00:37:50.284Z,13.05
2022-09-14T00:39:30.069Z,13.02
2022-09-14T00:41:09.822Z,13
2022-09-14T00:42:49.605Z,12.99
2022-09-14T00:44:29.349Z,12.93
2022-09-14T00:46:09.095Z,12.93
2022-09-14T00:47:48.868Z,12.9
2022-09-14T00:49:28.634Z,12.89
2022-09-14T00:51:08.395Z,12.86
2022-09-14T00:52:48.185Z,12.83
2022-09-14T00:54:27.921Z,12.8
2022-09-14T00:59:27.227Z,12.72
2022-09-14T01:01:07.012Z,12.71
2022-09-14T01:02:46.788Z,12.68
2022-09-14T01:04:26.503Z,12.69
2022-09-14T01:06:06.276Z,12.66
2022-09-14T01:07:46.040Z,12.64
2022-09-14T01:09:25.822Z,12.63
2022-09-14T01:11:05.596Z,12.62
2022-09-14T01:12:45.385Z,12.65
2022-09-14T01:14:25.103Z,12.58
2022-09-14T01:16:04.854Z,12.56
2022-09-14T01:17:44.618Z,12.52
2022-09-14T01:19:24.384Z,12.48
2022-09-14T01:21:04.147Z,12.48
2022-09-14T01:22:43.933Z,12.46
2022-09-14T01:24:23.720Z,12.45
2022-09-14T01:26:03.488Z,12.42
2022-09-14T01:27:43.217Z,12.41
2022-09-14T01:29:22.969Z,12.39
2022-09-14T01:31:02.738Z,12.38
2022-09-14T01:32:42.509Z,12.37
2022-09-14T01:34:22.268Z,12.34
2022-09-14T01:36:02.039Z,12.34
2022-09-14T01:37:41.806Z,12.31
2022-09-14T01:39:21.559Z,12.29
2022-09-14T01:41:01.327Z,12.27
2022-09-14T01:42:41.108Z,12.25
2022-09-14T01:46:00.604Z,12.22
2022-09-14T01:47:40.383Z,12.18
2022-09-14T01:49:20.137Z,12.17
2022-09-14T01:50:59.921Z,12.15
2022-09-14T01:52:39.678Z,12.19
2022-09-14T01:55:59.199Z,12.1
2022-09-14T01:57:38.946Z,12.09
2022-09-14T01:59:18.734Z,12.08
2022-09-14T02:02:38.265Z,12.04
2022-09-14T02:04:18.028Z,12.01
2022-09-14T02:05:57.777Z,11.97
2022-09-14T02:07:37.551Z,11.96
2022-09-14T02:09:17.349Z,11.95
2022-09-14T02:12:36.901Z,11.91
2022-09-14T02:14:16.608Z,11.91
2022-09-14T02:15:56.359Z,11.89
2022-09-14T02:17:36.129Z,11.88
2022-09-14T02:19:15.881Z,11.88
2022-09-14T02:20:55.682Z,11.88
2022-09-14T02:22:35.425Z,11.86
2022-09-14T02:24:15.184Z,11.83
2022-09-14T02:25:54.941Z,11.81
2022-09-14T02:27:34.699Z,11.82
2022-09-14T02:29:14.477Z,11.8
2022-09-14T02:30:54.251Z,11.79
2022-09-14T02:32:34.024Z,11.79
2022-09-14T02:34:13.755Z,11.76
2022-09-14T02:35:53.516Z,11.76
2022-09-14T02:37:33.292Z,11.74
2022-09-14T02:39:13.092Z,11.73
2022-09-14T02:42:32.593Z,11.71
2022-09-14T02:44:12.350Z,11.74
2022-09-14T02:45:52.105Z,11.72
2022-09-14T02:47:31.880Z,11.73
2022-09-14T02:49:11.634Z,11.71
2022-09-14T02:50:51.415Z,11.69
2022-09-14T02:52:31.154Z,11.68
2022-09-14T02:54:10.935Z,11.67
2022-09-14T02:55:50.696Z,11.65
2022-09-14T02:57:30.466Z,11.63
2022-09-14T02:59:10.222Z,11.63
2022-09-14T03:00:49.990Z,11.6
2022-09-14T03:02:29.751Z,11.6
2022-09-14T03:04:09.526Z,11.59
2022-09-14T03:05:49.275Z,11.56
2022-09-14T03:07:29.044Z,11.56
2022-09-14T03:10:48.561Z,11.55
2022-09-14T03:12:28.340Z,11.5
2022-09-14T03:14:08.103Z,11.5
2022-09-14T03:15:47.849Z,11.49
2022-09-14T03:17:27.630Z,11.5
2022-09-14T03:19:07.390Z,11.48
2022-09-14T03:20:47.142Z,11.46
2022-09-14T03:22:26.911Z,11.46
2022-09-14T03:24:06.672Z,11.45
2022-09-14T03:25:46.487Z,11.39
2022-09-14T03:27:26.220Z,11.41
2022-09-14T03:29:05.961Z,11.4
2022-09-14T03:30:45.742Z,11.37
2022-09-14T03:32:25.496Z,11.36
2022-09-14T03:34:05.258Z,11.38
2022-09-14T03:35:45.027Z,11.33
2022-09-14T03:37:24.789Z,11.33
2022-09-14T03:39:04.550Z,11.31
2022-09-14T03:40:44.325Z,11.29
2022-09-14T03:42:24.086Z,11.24
2022-09-14T03:44:03.860Z,11.26
2022-09-14T03:45:43.612Z,11.25
2022-09-14T03:47:23.389Z,11.25
2022-09-14T03:49:03.130Z,11.23
2022-09-14T03:50:42.904Z,11.21
2022-09-14T03:52:22.664Z,11.18
2022-09-14T03:54:02.424Z,11.19
2022-09-14T03:55:42.203Z,11.17
2022-09-14T03:57:21.992Z,11.13
2022-09-14T03:59:01.717Z,11.13
2022-09-14T04:00:41.497Z,11.11
2022-09-14T04:02:21.248Z,11.1
2022-09-14T04:04:01.018Z,11.07
2022-09-14T04:05:40.777Z,11.06
2022-09-14T04:07:20.537Z,11.04
2022-09-14T04:09:00.297Z,11.01
2022-09-14T04:10:40.071Z,11.02
2022-09-14T04:12:19.839Z,11.01
2022-09-14T04:13:59.586Z,10.99
2022-09-14T04:15:39.361Z,10.97
2022-09-14T04:17:19.121Z,10.97
2022-09-14T04:18:58.913Z,10.95
2022-09-14T04:22:18.455Z,10.92
2022-09-14T04:23:58.181Z,10.91
2022-09-14T04:25:37.954Z,10.91
2022-09-14T04:27:17.716Z,10.9
2022-09-14T04:28:57.472Z,10.88
2022-09-14T04:30:37.235Z,10.89
2022-09-14T04:32:17.010Z,10.88
2022-09-14T04:33:56.751Z,10.89
2022-09-14T04:35:36.522Z,10.89
2022-09-14T04:37:16.280Z,10.88
2022-09-14T04:38:56.055Z,10.86
2022-09-14T04:40:35.821Z,10.87
2022-09-14T04:42:15.580Z,10.88
2022-09-14T04:43:55.352Z,10.86
2022-09-14T04:45:35.115Z,10.87
2022-09-14T04:47:14.883Z,10.83
2022-09-14T04:52:14.151Z,10.85
2022-09-14T04:53:53.944Z,10.84
2022-09-14T04:55:33.695Z,10.84
2022-09-14T04:58:53.232Z,10.84
2022-09-14T05:00:32.989Z,10.83
2022-09-14T05:02:12.777Z,10.85
2022-09-14T05:05:32.272Z,10.86
2022-09-14T05:07:12.044Z,10.87
2022-09-14T05:08:51.809Z,10.89
2022-09-14T05:12:11.323Z,10.88
2022-09-14T05:13:51.120Z,10.87
2022-09-14T05:15:30.859Z,10.88
2022-09-14T05:17:10.617Z,10.89
2022-09-14T05:18:50.390Z,10.87
2022-09-14T05:22:09.906Z,10.89
2022-09-14T05:23:49.675Z,10.88
2022-09-14T05:25:29.451Z,10.87
2022-09-14T05:27:09.210Z,10.87
2022-09-14T05:28:48.967Z,10.9
2022-09-14T05:30:28.734Z,10.91
2022-09-14T05:32:08.497Z,10.93
2022-09-14T05:33:48.280Z,10.95
2022-09-14T05:35:28.034Z,10.94
2022-09-14T05:37:07.800Z,10.95
2022-09-14T05:38:47.560Z,10.95
2022-09-14T05:40:27.347Z,10.97
2022-09-14T05:42:07.090Z,11
2022-09-14T05:43:46.868Z,10.99
2022-09-14T05:45:26.626Z,10.99
2022-09-14T05:47:06.401Z,11
2022-09-14T05:48:46.151Z,11.01
2022-09-14T05:50:25.934Z,11.04
2022-09-14T05:52:05.685Z,11.03
2022-09-14T05:55:25.238Z,11.03
2022-09-14T05:57:04.995Z,11.06
2022-09-14T05:58:44.816Z,11.06
2022-09-14T06:02:04.306Z,11.09
2022-09-14T06:03:44.071Z,11.06
2022-09-14T06:05:23.896Z,11.09
2022-09-14T06:07:03.607Z,11.09
2022-09-14T06:08:43.423Z,11.11
2022-09-14T06:10:23.141Z,11.14
2022-09-14T06:12:02.904Z,11.13
2022-09-14T06:13:42.703Z,11.13
2022-09-14T06:15:22.432Z,11.16
2022-09-14T06:17:02.190Z,11.15
2022-09-14T06:18:42.058Z,11.19
2022-09-14T06:22:01.505Z,11.2
2022-09-14T06:23:41.263Z,11.22
2022-09-14T06:25:21.027Z,11.23
2022-09-14T06:27:00.818Z,11.26
2022-09-14T06:28:40.572Z,11.27
2022-09-14T06:32:00.096Z,11.31
2022-09-14T06:33:39.854Z,11.34
2022-09-14T06:35:19.636Z,11.36
2022-09-14T06:36:59.424Z,11.37
2022-09-14T06:38:39.170Z,11.4
2022-09-14T06:40:18.953Z,11.41
2022-09-14T06:41:58.699Z,11.43
2022-09-14T06:43:38.468Z,11.47
2022-09-14T06:45:18.217Z,11.45
2022-09-14T06:48:37.760Z,11.55
2022-09-14T06:50:17.528Z,11.55
2022-09-14T06:53:37.059Z,11.65
2022-09-14T06:55:16.825Z,11.69
2022-09-14T06:56:56.629Z,11.73
2022-09-14T06:58:36.362Z,11.78
2022-09-14T07:03:35.669Z,11.95
2022-09-14T07:05:15.419Z,12
2022-09-14T07:06:55.186Z,12.04
2022-09-14T07:08:35.030Z,12.07
2022-09-14T07:10:14.761Z,12.11
2022-09-14T07:11:54.499Z,12.13
2022-09-14T07:13:34.263Z,12.17
2022-09-14T07:15:14.035Z,12.2
2022-09-14T07:16:53.793Z,12.24
2022-09-14T07:18:33.554Z,12.26
2022-09-14T07:20:13.343Z,12.29
2022-09-14T07:21:53.123Z,12.32
2022-09-14T07:23:32.859Z,12.34
2022-09-14T07:25:12.631Z,12.37
2022-09-14T07:26:52.412Z,12.38
2022-09-14T07:28:32.159Z,12.41
2022-09-14T07:31:51.799Z,12.48
2022-09-14T07:33:31.580Z,12.53
2022-09-14T07:35:11.222Z,12.55
2022-09-14T07:38:30.758Z,12.65
2022-09-14T07:40:10.580Z,12.69
2022-09-14T07:41:50.291Z,12.77
2022-09-14T07:43:30.051Z,12.79
2022-09-14T07:45:09.828Z,12.84
2022-09-14T07:46:49.638Z,12.88
2022-09-14T07:48:29.361Z,12.92
2022-09-14T07:50:09.128Z,12.98
2022-09-14T07:51:48.883Z,13.02
2022-09-14T07:53:28.660Z,13.1
2022-09-14T07:55:08.484Z,13.17
2022-09-14T07:56:48.187Z,13.25
2022-09-14T07:58:27.968Z,13.32
2022-09-14T08:00:07.791Z,13.4
2022-09-14T08:01:47.484Z,13.46
2022-09-14T08:03:27.267Z,13.53
2022-09-14T08:05:07.019Z,13.61
2022-09-14T08:06:46.786Z,13.63
2022-09-14T08:10:06.319Z,13.73
2022-09-14T08:11:46.084Z,13.78
2022-09-14T08:13:25.864Z,13.82
2022-09-14T08:15:05.623Z,13.86
2022-09-14T08:16:45.399Z,13.9
2022-09-14T08:18:25.174Z,13.95
2022-09-14T08:20:04.934Z,14
2022-09-14T08:21:44.686Z,14.05
2022-09-14T08:23:24.463Z,14.11
2022-09-14T08:26:43.977Z,14.23
2022-09-14T08:28:23.768Z,14.29
2022-09-14T08:30:03.516Z,14.33
2022-09-14T08:31:43.272Z,14.38
2022-09-14T08:33:23.052Z,14.42
2022-09-14T08:35:02.811Z,14.48
2022-09-14T08:36:42.576Z,14.53
2022-09-14T08:38:22.349Z,14.61
2022-09-14T08:40:02.102Z,14.7
2022-09-14T08:41:41.878Z,14.72
2022-09-14T08:43:21.674Z,14.83
2022-09-14T08:45:01.404Z,14.93
2022-09-14T08:46:41.163Z,14.98
2022-09-14T08:48:20.929Z,15.05
2022-09-14T08:50:00.705Z,15.13
2022-09-14T08:51:40.462Z,15.21
2022-09-14T08:53:20.229Z,15.31
2022-09-14T08:55:00.017Z,15.36
2022-09-14T08:56:39.757Z,15.43
2022-09-14T08:58:19.570Z,15.48
2022-09-14T08:59:59.300Z,15.52
2022-09-14T09:01:39.069Z,15.62
2022-09-14T09:03:18.842Z,15.67
2022-09-14T09:04:58.593Z,15.7
2022-09-14T09:06:38.378Z,15.75
2022-09-14T09:08:18.131Z,15.72
2022-09-14T09:11:37.656Z,15.86
2022-09-14T09:13:17.555Z,15.86
2022-09-14T09:14:57.304Z,15.89
2022-09-14T09:16:36.944Z,15.88
2022-09-14T09:18:16.723Z,15.87
2022-09-14T09:19:56.526Z,15.85
2022-09-14T09:21:36.247Z,15.84
2022-09-14T09:23:16.024Z,15.85
2022-09-14T09:24:55.777Z,15.86
2022-09-14T09:26:35.547Z,15.84
2022-09-14T09:28:15.328Z,15.92
2022-09-14T09:29:55.087Z,15.87
2022-09-14T09:33:14.602Z,15.85
2022-09-14T09:34:54.360Z,15.86
2022-09-14T09:39:53.656Z,15.87
2022-09-14T09:41:33.414Z,15.89
2022-09-14T09:43:13.192Z,15.92
2022-09-14T09:44:52.951Z,15.92
2022-09-14T09:46:32.800Z,15.93
2022-09-14T09:48:12.540Z,15.96
2022-09-14T09:49:52.231Z,16.02
2022-09-14T09:51:32.049Z,16.04
2022-09-14T09:53:11.770Z,16.12
2022-09-14T09:54:51.536Z,16.19
2022-09-14T09:56:31.293Z,16.21
2022-09-14T09:58:11.068Z,16.2
2022-09-14T10:01:30.575Z,16.21
2022-09-14T10:03:10.348Z,16.21
2022-09-14T10:04:50.197Z,16.25
2022-09-14T10:06:29.930Z,16.27
2022-09-14T10:08:09.699Z,16.27
2022-09-14T10:09:49.447Z,16.29
2022-09-14T10:11:29.166Z,16.31
2022-09-14T10:13:08.955Z,16.37
2022-09-14T10:14:48.691Z,16.36
2022-09-14T10:16:28.480Z,16.39
2022-09-14T10:18:08.238Z,16.41
2022-09-14T10:19:47.984Z,16.37
2022-09-14T10:21:27.852Z,16.39
2022-09-14T10:23:07.527Z,16.39
2022-09-14T10:24:47.298Z,16.43
2022-09-14T10:26:27.043Z,16.44
2022-09-14T10:28:06.798Z,16.46
2022-09-14T10:29:46.562Z,16.46
2022-09-14T10:31:26.410Z,16.5
2022-09-14T10:33:06.125Z,16.62
2022-09-14T10:34:45.876Z,16.56
2022-09-14T10:36:25.622Z,16.64
2022-09-14T10:39:45.279Z,16.81
2022-09-14T10:41:24.934Z,16.79
2022-09-14T10:43:04.819Z,16.82
2022-09-14T10:44:44.452Z,16.83
2022-09-14T10:46:24.223Z,16.84
2022-09-14T10:48:03.986Z,16.86
2022-09-14T10:49:43.741Z,16.84
2022-09-14T10:51:23.510Z,16.85
2022-09-14T10:53:03.378Z,16.86
2022-09-14T10:54:43.132Z,16.84
2022-09-14T10:56:22.825Z,16.85
2022-09-14T10:58:02.571Z,16.9
2022-09-14T10:59:42.406Z,16.87
2022-09-14T11:01:22.091Z,16.94
2022-09-14T11:03:01.888Z,17.03
2022-09-14T11:04:41.612Z,17.09
2022-09-14T11:06:21.386Z,17.12
2022-09-14T11:08:01.196Z,17.15
2022-09-14T11:09:40.909Z,17.17
2022-09-14T11:11:20.669Z,17.18
2022-09-14T11:13:00.445Z,17.2
2022-09-14T11:14:40.212Z,17.24
2022-09-14T11:17:59.737Z,17.32
2022-09-14T11:19:39.538Z,17.36
2022-09-14T11:21:19.259Z,17.43
2022-09-14T11:22:59.023Z,17.5
2022-09-14T11:24:38.802Z,17.52
2022-09-14T11:26:18.654Z,17.57
2022-09-14T11:27:58.311Z,17.61
2022-09-14T11:31:17.840Z,17.7
2022-09-14T11:32:57.610Z,17.74
2022-09-14T11:34:37.382Z,17.77
2022-09-14T11:36:17.143Z,17.81
2022-09-14T11:37:56.904Z,17.84
2022-09-14T11:41:16.494Z,17.92
2022-09-14T11:42:56.194Z,17.98
2022-09-14T11:44:35.952Z,17.99
2022-09-14T11:46:15.727Z,18.01
2022-09-14T11:47:55.489Z,18
2022-09-14T11:51:15.029Z,18.09
2022-09-14T11:52:54.779Z,18.11
2022-09-14T11:54:34.530Z,18.1
2022-09-14T11:56:14.314Z,18.14
2022-09-14T11:57:54.100Z,18.17
2022-09-14T12:01:13.607Z,18.29
2022-09-14T12:02:53.370Z,18.34
2022-09-14T12:04:33.116Z,18.42
2022-09-14T12:06:13.008Z,18.42
2022-09-14T12:07:52.811Z,18.42
2022-09-14T12:09:32.426Z,18.42
2022-09-14T12:11:12.170Z,18.45
2022-09-14T12:12:51.961Z,18.45
2022-09-14T12:14:31.720Z,18.44
2022-09-14T12:16:11.481Z,18.41
2022-09-14T12:17:51.246Z,18.42
2022-09-14T12:19:31.097Z,18.45
2022-09-14T12:21:10.869Z,18.45
2022-09-14T12:22:50.551Z,18.45
2022-09-14T12:24:30.294Z,18.5
2022-09-14T12:27:49.912Z,18.53
2022-09-14T12:29:29.597Z,18.54
2022-09-14T12:31:09.385Z,18.54
2022-09-14T12:32:49.125Z,18.61
2022-09-14T12:34:28.890Z,18.64
2022-09-14T12:36:08.662Z,18.61
2022-09-14T12:37:48.449Z,18.61
2022-09-14T12:39:28.160Z,18.61
2022-09-14T12:41:07.945Z,18.61
2022-09-14T12:42:47.700Z,18.64
2022-09-14T12:44:27.463Z,18.61
2022-09-14T12:46:07.238Z,18.62
2022-09-14T12:47:47.068Z,18.66
2022-09-14T12:49:26.843Z,18.65
2022-09-14T12:51:06.514Z,18.69
2022-09-14T12:52:46.288Z,18.69
2022-09-14T12:54:26.165Z,18.71
2022-09-14T12:56:05.823Z,18.71
2022-09-14T12:57:45.578Z,18.75
2022-09-14T13:01:05.153Z,18.78
2022-09-14T13:02:44.874Z,18.84
2022-09-14T13:04:24.650Z,18.86
2022-09-14T13:06:04.401Z,18.86
2022-09-14T13:07:44.162Z,18.89
2022-09-14T13:09:23.923Z,18.92
2022-09-14T13:12:43.452Z,18.98
2022-09-14T13:14:23.213Z,19.03
2022-09-14T13:16:03.111Z,19.02
2022-09-14T13:17:42.890Z,19.03
2022-09-14T13:19:22.645Z,19.04
2022-09-14T13:21:02.380Z,19.06
2022-09-14T13:22:42.040Z,19.07
2022-09-14T13:24:21.806Z,19.07
2022-09-14T13:26:01.572Z,19.06
2022-09-14T13:27:41.416Z,19.04
2022-09-14T13:31:00.867Z,19.02
2022-09-14T13:32:40.683Z,19.02
2022-09-14T13:34:20.430Z,19
2022-09-14T13:36:00.144Z,18.99
2022-09-14T13:37:40.048Z,18.98
2022-09-14T13:40:59.484Z,18.92
2022-09-14T13:42:39.204Z,18.87
2022-09-14T13:44:18.975Z,18.87
2022-09-14T13:45:58.722Z,18.85
2022-09-14T13:47:38.493Z,18.86
2022-09-14T13:49:18.264Z,18.87
2022-09-14T13:50:58.013Z,18.83
2022-09-14T13:52:37.783Z,18.84
2022-09-14T13:54:17.549Z,18.79
2022-09-14T13:55:57.312Z,18.81
2022-09-14T13:57:37.088Z,18.81
2022-09-14T13:59:16.844Z,18.79
2022-09-14T14:00:56.615Z,18.76
2022-09-14T14:02:36.373Z,18.76
2022-09-14T14:04:16.141Z,18.75
2022-09-14T14:05:55.901Z,18.77
2022-09-14T14:07:35.660Z,18.75
2022-09-14T14:09:15.431Z,18.75
2022-09-14T14:10:55.284Z,18.75
2022-09-14T14:12:34.950Z,18.71
2022-09-14T14:14:14.720Z,18.73
2022-09-14T14:15:54.488Z,18.73
2022-09-14T14:17:34.257Z,18.73
2022-09-14T14:19:14.019Z,18.7
2022-09-14T14:20:53.789Z,18.71
2022-09-14T14:22:33.558Z,18.71
2022-09-14T14:24:13.333Z,18.73
2022-09-14T14:25:53.090Z,18.7
2022-09-14T14:27:32.854Z,18.69
2022-09-14T14:29:12.601Z,18.67
2022-09-14T14:30:52.370Z,18.65
2022-09-14T14:32:32.235Z,18.62
2022-09-14T14:34:12.008Z,18.62
2022-09-14T14:35:51.727Z,18.58
2022-09-14T14:37:31.557Z,18.57
2022-09-14T14:39:11.328Z,18.52
2022-09-14T14:40:50.944Z,18.51
2022-09-14T14:42:30.758Z,18.52
2022-09-14T14:44:10.499Z,18.48
2022-09-14T14:45:50.231Z,18.45
2022-09-14T14:47:30.008Z,18.43
2022-09-14T14:49:09.790Z,18.42
2022-09-14T14:50:49.522Z,18.37
2022-09-14T14:52:29.303Z,18.35
2022-09-14T14:54:09.049Z,18.32
2022-09-14T14:57:28.585Z,18.31
2022-09-14T14:59:08.345Z,18.27
2022-09-14T15:00:48.108Z,18.36
2022-09-14T15:02:27.878Z,18.21
2022-09-14T15:04:07.639Z,18.21
2022-09-14T15:05:47.416Z,18.27
2022-09-14T15:07:27.173Z,18.19
2022-09-14T15:09:06.934Z,18.15
2022-09-14T15:10:46.748Z,18.16
2022-09-14T15:12:26.470Z,18.2
2022-09-14T15:14:06.228Z,18.12
2022-09-14T15:15:46.018Z,18.11
2022-09-14T15:17:25.751Z,18.07
2022-09-14T15:19:05.509Z,18.04
2022-09-14T15:20:45.308Z,18.06
2022-09-14T15:22:25.046Z,18.03
2022-09-14T15:24:04.807Z,17.99
2022-09-14T15:25:44.566Z,17.95
2022-09-14T15:27:24.374Z,17.92
2022-09-14T15:29:04.121Z,17.92
2022-09-14T15:30:43.861Z,17.91
2022-09-14T15:32:23.639Z,17.91
2022-09-14T15:34:03.391Z,17.87
2022-09-14T15:35:43.164Z,17.85
2022-09-14T15:39:02.674Z,17.82
2022-09-14T15:40:42.451Z,17.79
2022-09-14T15:42:22.224Z,17.79
2022-09-14T15:44:01.972Z,17.78
2022-09-14T15:45:41.744Z,17.74
2022-09-14T15:47:21.506Z,17.76
2022-09-14T15:49:01.259Z,17.73
2022-09-14T15:52:20.793Z,17.7
2022-09-14T15:54:00.556Z,17.69
2022-09-14T15:55:40.332Z,17.64
2022-09-14T15:57:20.092Z,17.67
2022-09-14T15:58:59.858Z,17.65
2022-09-14T16:00:39.640Z,17.65
2022-09-14T16:02:19.395Z,17.62
2022-09-14T16:03:59.150Z,17.59
2022-09-14T16:05:38.900Z,17.57
2022-09-14T16:07:18.679Z,17.56
2022-09-14T16:08:58.485Z,17.56
2022-09-14T16:12:17.967Z,17.53
2022-09-14T16:13:57.726Z,17.5
2022-09-14T16:15:37.502Z,17.45
2022-09-14T16:17:17.265Z,17.46
2022-09-14T16:20:36.788Z,17.49
2022-09-14T16:22:16.557Z,17.4
2022-09-14T16:23:56.306Z,17.39
2022-09-14T16:25:36.074Z,17.37
2022-09-14T16:27:15.844Z,17.34
2022-09-14T16:28:55.593Z,17.33
2022-09-14T16:30:35.379Z,17.29
2022-09-14T16:32:15.133Z,17.28
2022-09-14T16:33:54.903Z,17.23
2022-09-14T16:35:34.662Z,17.21
2022-09-14T16:37:14.429Z,17.19
2022-09-14T16:38:54.198Z,17.19
2022-09-14T16:40:33.960Z,17.18
2022-09-14T16:42:13.715Z,17.16
2022-09-14T16:43:53.493Z,17.12
2022-09-14T16:45:33.237Z,17.1
2022-09-14T16:47:13.009Z,17.08
2022-09-14T16:48:52.785Z,17.04
2022-09-14T16:50:32.542Z,17.01
2022-09-14T16:52:12.298Z,16.99
2022-09-14T16:53:52.074Z,16.96
2022-09-14T16:55:31.837Z,16.95
2022-09-14T16:57:11.596Z,16.95
2022-09-14T16:58:51.364Z,16.92
2022-09-14T17:00:31.126Z,16.92
2022-09-14T17:02:10.876Z,16.87
2022-09-14T17:03:50.648Z,16.87
2022-09-14T17:07:10.176Z,16.82
2022-09-14T17:10:29.713Z,16.77
2022-09-14T17:12:09.464Z,16.73
2022-09-14T17:13:49.247Z,16.7
2022-09-14T17:15:28.988Z,16.69
2022-09-14T17:18:48.530Z,16.65
2022-09-14T17:20:28.286Z,16.61
2022-09-14T17:22:08.070Z,16.7
2022-09-14T17:23:47.812Z,16.6
2022-09-14T17:25:27.572Z,16.59
2022-09-14T17:27:07.343Z,16.62
2022-09-14T17:30:26.870Z,16.54
2022-09-14T17:32:06.666Z,16.52
2022-09-14T17:33:46.395Z,16.51
2022-09-14T17:35:26.185Z,16.51
2022-09-14T17:37:05.922Z,16.49
2022-09-14T17:38:45.717Z,16.46
2022-09-14T17:40:25.459Z,16.46
2022-09-14T17:42:05.235Z,16.43
2022-09-14T17:43:44.996Z,16.43
2022-09-14T17:45:24.752Z,16.41
2022-09-14T17:47:04.529Z,16.4
2022-09-14T17:48:44.285Z,16.39
2022-09-14T17:50:24.042Z,16.36
2022-09-14T17:52:03.795Z,16.36
2022-09-14T17:53:43.578Z,16.34
2022-09-14T17:55:23.342Z,16.32
2022-09-14T17:57:03.087Z,16.35
2022-09-14T18:00:22.624Z,16.27
2022-09-14T18:02:02.387Z,16.28
2022-09-14T18:03:42.160Z,16.24
2022-09-14T18:05:21.912Z,16.24
2022-09-14T18:07:01.672Z,16.19
2022-09-14T18:10:21.211Z,16.2
2022-09-14T18:12:00.968Z,16.17
2022-09-14T18:13:40.747Z,16.17
2022-09-14T18:15:20.500Z,16.18
2022-09-14T18:17:00.269Z,16.15
2022-09-14T18:18:40.034Z,16.12
2022-09-14T18:20:19.790Z,16.11
2022-09-14T18:21:59.575Z,16.1
2022-09-14T18:23:39.348Z,16.09
2022-09-14T18:25:19.090Z,16.07
2022-09-14T18:26:58.865Z,16.06
2022-09-14T18:28:38.619Z,16.03
2022-09-14T18:30:18.368Z,16.02
2022-09-14T18:31:58.153Z,16.02
2022-09-14T18:33:37.913Z,15.98
2022-09-14T18:35:17.677Z,15.95
2022-09-14T18:36:57.419Z,15.94
2022-09-14T18:38:37.198Z,15.93
2022-09-14T18:40:16.961Z,15.91
2022-09-14T18:41:56.723Z,15.89
2022-09-14T18:43:36.489Z,15.87
2022-09-14T18:45:16.258Z,15.85
2022-09-14T18:46:56.007Z,15.84
2022-09-14T18:50:15.546Z,15.81
2022-09-14T18:51:55.295Z,15.83
2022-09-14T18:53:35.067Z,15.8
2022-09-14T18:55:14.842Z,15.77
2022-09-14T18:56:54.607Z,15.77
2022-09-14T18:58:34.361Z,15.75
2022-09-14T19:00:14.137Z,15.75
2022-09-14T19:01:53.890Z,15.73
2022-09-14T19:03:33.660Z,15.73
2022-09-14T19:05:13.444Z,15.71
2022-09-14T19:06:53.180Z,15.69
2022-09-14T19:08:32.974Z,15.68
2022-09-14T19:10:12.732Z,15.67
2022-09-14T19:11:52.483Z,15.64
2022-09-14T19:13:32.229Z,15.65
2022-09-14T19:16:51.765Z,15.63
2022-09-14T19:18:31.548Z,15.63
2022-09-14T19:20:11.301Z,15.61
2022-09-14T19:21:51.067Z,15.58
2022-09-14T19:23:30.832Z,15.57
2022-09-14T19:25:10.626Z,15.56
2022-09-14T19:26:50.339Z,15.57
2022-09-14T19:28:30.111Z,15.55
2022-09-14T19:30:09.884Z,15.56
2022-09-14T19:31:49.643Z,15.54
2022-09-14T19:33:29.414Z,15.52
2022-09-14T19:35:09.169Z,15.5
2022-09-14T19:36:48.941Z,15.51
2022-09-14T19:40:08.480Z,15.46
2022-09-14T19:41:48.240Z,15.43
2022-09-14T19:43:28.006Z,15.41
2022-09-14T19:45:07.743Z,15.39
2022-09-14T19:46:47.520Z,15.37
2022-09-14T19:50:07.058Z,15.33
2022-09-14T19:53:26.578Z,15.29
2022-09-14T19:55:06.328Z,15.28
2022-09-14T19:56:46.117Z,15.26
2022-09-14T19:58:25.881Z,15.25
2022-09-14T20:00:05.619Z,15.22
2022-09-14T20:01:45.399Z,15.28
2022-09-14T20:03:25.146Z,15.19
2022-09-14T20:05:04.934Z,15.16
2022-09-14T20:06:44.681Z,15.16
2022-09-14T20:08:24.457Z,15.1
2022-09-14T20:10:04.212Z,15.1
2022-09-14T20:11:43.968Z,15.08
2022-09-14T20:13:23.733Z,15.08
2022-09-14T20:15:03.520Z,15.05
2022-09-14T20:16:43.268Z,15.03
2022-09-14T20:18:23.032Z,15.02
2022-09-14T20:20:02.789Z,14.99
2022-09-14T20:21:42.558Z,14.97
2022-09-14T20:23:22.317Z,14.99
2022-09-14T20:25:02.091Z,14.94
2022-09-14T20:26:41.854Z,14.92
2022-09-14T20:28:21.612Z,14.9
2022-09-14T20:30:01.385Z,14.88
2022-09-14T20:31:41.161Z,14.86
2022-09-14T20:33:20.898Z,14.84
2022-09-14T20:36:40.556Z,14.8
2022-09-14T20:38:20.301Z,14.79
2022-09-14T20:40:00.118Z,14.76
2022-09-14T20:41:39.859Z,14.74
2022-09-14T20:43:19.639Z,14.71
2022-09-14T20:44:59.409Z,14.68
2022-09-14T20:46:39.180Z,14.66
2022-09-14T20:48:18.777Z,14.65
2022-09-14T20:49:58.710Z,14.61
2022-09-14T20:51:38.465Z,14.59
2022-09-14T20:54:57.972Z,14.55
2022-09-14T20:56:37.769Z,14.54
2022-09-14T20:58:17.495Z,14.52
2022-09-14T20:59:57.298Z,14.5
2022-09-14T21:01:37.044Z,14.5
2022-09-14T21:03:16.740Z,14.48
2022-09-14T21:04:56.553Z,14.49
2022-09-14T21:06:36.346Z,14.43
2022-09-14T21:08:16.065Z,14.42
2022-09-14T21:09:55.853Z,14.39
2022-09-14T21:11:35.617Z,14.38
2022-09-14T21:13:15.240Z,14.38
2022-09-14T21:14:55.091Z,14.37
2022-09-14T21:16:34.799Z,14.33
2022-09-14T21:18:14.669Z,14.34
2022-09-14T21:19:54.424Z,14.32
2022-09-14T21:21:34.069Z,14.3
2022-09-14T21:23:13.835Z,14.29
2022-09-14T21:24:53.638Z,14.29
2022-09-14T21:26:33.371Z,14.27
2022-09-14T21:29:52.986Z,14.23
2022-09-14T21:31:32.647Z,14.21
2022-09-14T21:33:12.397Z,14.2
2022-09-14T21:34:52.231Z,14.2
2022-09-14T21:36:31.930Z,14.19
2022-09-14T21:39:51.473Z,14.15
2022-09-14T21:41:31.219Z,14.13
2022-09-14T21:44:50.893Z,14.09
2022-09-14T21:46:30.551Z,14.08
2022-09-14T21:49:50.120Z,14.04
2022-09-14T21:51:29.815Z,14.03
2022-09-14T21:53:09.589Z,14.02
2022-09-14T21:54:49.367Z,14
2022-09-14T21:56:29.122Z,14
2022-09-14T21:58:08.876Z,13.96
2022-09-14T21:59:48.766Z,13.96
2022-09-14T22:03:08.207Z,13.95
2022-09-14T22:06:27.681Z,13.92
2022-09-14T22:09:47.313Z,13.87
2022-09-14T22:13:06.742Z,13.83
2022-09-14T22:14:46.644Z,13.82
2022-09-14T22:16:26.311Z,13.8
2022-09-14T22:19:45.914Z,13.8
2022-09-14T22:21:25.597Z,13.8
2022-09-14T22:23:05.335Z,13.8
2022-09-14T22:24:45.131Z,13.78
2022-09-14T22:26:24.904Z,13.79
2022-09-14T22:28:04.677Z,13.76
2022-09-14T22:29:44.495Z,13.76
2022-09-14T22:31:24.178Z,13.74
2022-09-14T22:33:03.952Z,13.71
2022-09-14T22:34:43.763Z,13.72
2022-09-14T22:36:23.451Z,13.72
2022-09-14T22:38:03.268Z,13.69
2022-09-14T22:39:42.975Z,13.68
2022-09-14T22:41:22.835Z,13.68
2022-09-14T22:43:02.547Z,13.67
2022-09-14T22:44:42.254Z,13.67
2022-09-14T22:46:22.136Z,13.64
2022-09-14T22:49:41.586Z,13.61
2022-09-14T22:51:21.362Z,13.59
2022-09-14T22:53:01.067Z,13.59
2022-09-14T22:54:40.844Z,13.56
2022-09-14T22:56:20.597Z,13.55
2022-09-14T22:58:00.390Z,13.53
2022-09-14T22:59:40.167Z,13.52
2022-09-14T23:01:19.889Z,13.49
2022-09-14T23:02:59.657Z,13.49
2022-09-14T23:04:39.419Z,13.49
2022-09-14T23:06:19.201Z,13.46
2022-09-14T23:07:59.048Z,13.45
2022-09-14T23:09:38.708Z,13.44
2022-09-14T23:11:18.489Z,13.41
2022-09-14T23:12:58.241Z,13.41
2022-09-14T23:14:38.002Z,13.39
2022-09-14T23:16:17.779Z,13.38
2022-09-14T23:19:37.312Z,13.34
2022-09-14T23:21:17.097Z,13.33
2022-09-14T23:22:56.819Z,13.32
2022-09-14T23:24:36.592Z,13.27
2022-09-14T23:26:16.395Z,13.3
2022-09-14T23:27:56.123Z,13.29
2022-09-14T23:29:35.877Z,13.27
2022-09-14T23:31:15.694Z,13.26
2022-09-14T23:32:55.451Z,13.25